createdAt,value
2022-11-16T00:00:30.838Z,-1.52
2022-11-16T00:05:34.327Z,-1.51
2022-11-16T00:10:39.315Z,-1.41
2022-11-16T00:15:42.638Z,-1.47
2022-11-16T00:20:46.282Z,-1.32
2022-11-16T00:25:51.511Z,-1.40
2022-11-16T00:31:00.007Z,-1.40
2022-11-16T00:36:04.381Z,-1.45
2022-11-16T00:41:09.727Z,-1.45
2022-11-16T00:46:13.206Z,-1.46
2022-11-16T00:51:16.733Z,-1.40
2022-11-16T00:56:21.764Z,-1.32
2022-11-16T01:01:25.417Z,-1.31
2022-11-16T01:06:28.894Z,-1.35
2022-11-16T01:11:51.004Z,-1.46
2022-11-16T01:16:54.530Z,-1.67
2022-11-16T01:21:57.953Z,-1.76
2022-11-16T01:27:02.852Z,-1.78
2022-11-16T01:32:06.957Z,-2.05
2022-11-16T01:37:10.707Z,-1.98
2022-11-16T01:42:19.745Z,-1.94
2022-11-16T01:47:23.256Z,-1.93
2022-11-16T01:52:31.498Z,-2.07
2022-11-16T01:57:41.108Z,-2.08
2022-11-16T02:02:44.510Z,-2.23
2022-11-16T02:08:36.453Z,-2.21
2022-11-16T02:13:52.150Z,-2.45
2022-11-16T02:19:08.056Z,-2.39
2022-11-16T02:24:43.999Z,-2.35
2022-11-16T02:29:52.568Z,-2.21
2022-11-16T02:34:59.736Z,-2.24
2022-11-16T02:40:06.505Z,-2.34
2022-11-16T02:45:15.234Z,-2.38
2022-11-16T02:50:23.689Z,-2.44
2022-11-16T02:55:30.076Z,-2.30
2022-11-16T03:00:43.854Z,-2.34
2022-11-16T03:05:51.969Z,-2.46
2022-11-16T03:11:17.315Z,-2.56
2022-11-16T03:16:25.014Z,-2.62
2022-11-16T03:21:34.597Z,-2.77
2022-11-16T03:26:46.972Z,-2.76
2022-11-16T03:31:56.425Z,-2.88
2022-11-16T03:37:01.819Z,-3.24
2022-11-16T03:42:10.144Z,-3.40
2022-11-16T03:47:15.516Z,-3.44
2022-11-16T03:52:19.245Z,-3.64
2022-11-16T03:57:22.767Z,-3.82
2022-11-16T04:02:27.549Z,-3.90
2022-11-16T04:07:47.836Z,-3.88
2022-11-16T04:13:08.661Z,-4.04
2022-11-16T04:18:31.410Z,-4.05
2022-11-16T04:23:52.377Z,-4.04
2022-11-16T04:28:56.046Z,-4.00
2022-11-16T04:34:17.951Z,-3.92
2022-11-16T04:39:21.478Z,-4.06
2022-11-16T04:44:29.900Z,-3.94
2022-11-16T04:49:35.736Z,-3.86
2022-11-16T04:54:39.028Z,-3.92
2022-11-16T04:59:42.503Z,-3.83
2022-11-16T05:04:47.122Z,-3.78
2022-11-16T05:09:51.494Z,-3.85
2022-11-16T05:14:56.177Z,-3.89
2022-11-16T05:20:18.177Z,-3.73
2022-11-16T05:25:21.473Z,-3.64
2022-11-16T05:30:25.167Z,-3.47
2022-11-16T05:35:30.001Z,-3.49
2022-11-16T05:40:34.535Z,-3.64
2022-11-16T05:45:37.863Z,-3.62
2022-11-16T05:50:43.277Z,-3.72
2022-11-16T05:55:46.704Z,-3.66
2022-11-16T06:00:51.386Z,-2.99
2022-11-16T06:05:58.045Z,-3.02
2022-11-16T06:11:03.598Z,-2.90
2022-11-16T06:16:07.507Z,-2.80
2022-11-16T06:21:12.984Z,-2.53
2022-11-16T06:26:16.380Z,-2.11
2022-11-16T06:31:19.936Z,-1.24
2022-11-16T06:36:24.843Z,4.66
2022-11-16T06:41:28.082Z,9.23
2022-11-16T06:46:32.412Z,10.78
2022-11-16T06:51:37.252Z,12.95
2022-11-16T06:56:40.656Z,15.24
2022-11-16T07:01:44.239Z,16.66
2022-11-16T07:06:49.090Z,18.57
2022-11-16T07:11:52.401Z,19.66
2022-11-16T07:16:59.762Z,20.60
2022-11-16T07:22:06.249Z,21.70
2022-11-16T07:27:09.765Z,21.31
2022-11-16T07:32:13.318Z,21.46
2022-11-16T07:37:18.233Z,22.87
2022-11-16T07:42:21.604Z,23.01
2022-11-16T07:47:25.256Z,23.00
2022-11-16T07:52:29.921Z,22.68
2022-11-16T07:57:33.458Z,22.50
2022-11-16T08:02:37.017Z,23.61
2022-11-16T08:07:41.880Z,22.97
2022-11-16T08:12:45.379Z,23.09
2022-11-16T08:17:48.948Z,22.84
2022-11-16T08:22:53.520Z,23.43
2022-11-16T08:27:57.779Z,20.45
2022-11-16T08:33:01.018Z,18.16
2022-11-16T08:38:05.678Z,16.28
2022-11-16T08:43:11.144Z,13.68
2022-11-16T08:48:14.789Z,12.36
2022-11-16T08:53:19.715Z,10.65
2022-11-16T08:58:23.344Z,8.61
2022-11-16T09:03:26.752Z,7.32
2022-11-16T09:08:32.014Z,5.64
2022-11-16T09:13:35.571Z,4.47
2022-11-16T09:18:39.384Z,3.78
2022-11-16T09:23:44.288Z,2.98
2022-11-16T09:28:47.720Z,2.50
2022-11-16T09:33:51.332Z,2.36
2022-11-16T09:39:29.095Z,2.14
2022-11-16T09:44:39.075Z,2.18
2022-11-16T09:49:48.928Z,1.77
2022-11-16T09:54:56.290Z,1.76
2022-11-16T10:00:03.616Z,1.44
2022-11-16T10:05:15.750Z,1.42
2022-11-16T10:10:33.538Z,1.13
2022-11-16T10:15:49.685Z,1.20
2022-11-16T10:21:10.970Z,1.08
2022-11-16T10:26:26.703Z,1.06
2022-11-16T10:31:42.617Z,1.09
2022-11-16T10:36:46.845Z,0.96
2022-11-16T10:41:52.249Z,1.16
2022-11-16T10:47:03.844Z,0.95
2022-11-16T10:52:10.917Z,0.99
2022-11-16T10:57:17.034Z,1.21
2022-11-16T11:02:38.010Z,1.31
2022-11-16T11:07:41.518Z,1.29
2022-11-16T11:13:04.193Z,1.18
2022-11-16T11:18:19.461Z,0.93
2022-11-16T11:23:25.248Z,1.03
2022-11-16T11:28:32.011Z,1.01
2022-11-16T11:33:38.427Z,0.91
2022-11-16T11:38:59.303Z,0.54
2022-11-16T11:44:06.001Z,0.27
2022-11-16T11:49:17.983Z,-0.05
2022-11-16T11:54:26.980Z,-0.24
2022-11-16T11:59:32.137Z,-0.28
2022-11-16T12:05:12.053Z,-0.22
2022-11-16T12:10:23.105Z,-0.29
2022-11-16T12:15:58.913Z,-0.41
2022-11-16T12:21:11.206Z,-0.48
2022-11-16T12:26:20.410Z,-0.49
2022-11-16T12:31:49.188Z,-0.63
2022-11-16T12:37:01.278Z,-0.76
2022-11-16T12:42:31.093Z,-0.71
2022-11-16T12:47:49.079Z,-0.74
2022-11-16T12:53:23.848Z,-0.86
2022-11-16T12:58:43.251Z,-0.91
2022-11-16T13:03:54.105Z,-1.15
2022-11-16T13:09:04.628Z,-1.18
2022-11-16T13:14:15.359Z,-1.45
2022-11-16T13:19:21.299Z,-1.54
2022-11-16T13:24:34.386Z,-1.71
2022-11-16T13:29:44.593Z,-1.81
2022-11-16T13:34:50.721Z,-1.96
2022-11-16T13:40:22.897Z,-2.05
2022-11-16T13:45:32.315Z,-2.20
2022-11-16T13:50:39.978Z,-2.26
2022-11-16T13:55:46.350Z,-2.41
2022-11-16T14:00:59.065Z,-2.44
2022-11-16T14:06:03.962Z,-2.52
2022-11-16T14:11:27.050Z,-2.50
2022-11-16T14:16:49.144Z,-2.70
2022-11-16T14:22:03.359Z,-2.80
2022-11-16T14:27:16.375Z,-2.89
2022-11-16T14:32:24.605Z,-3.04
2022-11-16T14:37:35.240Z,-3.12
2022-11-16T14:43:14.949Z,-3.16
2022-11-16T14:48:18.148Z,-3.17
2022-11-16T14:53:21.992Z,-3.24
2022-11-16T14:58:25.354Z,-3.31
2022-11-16T15:03:34.941Z,-3.27
2022-11-16T15:08:44.606Z,-3.33
2022-11-16T15:13:49.322Z,-3.45
2022-11-16T15:19:01.278Z,-3.32
2022-11-16T15:29:28.045Z,-3.44
2022-11-16T15:34:33.571Z,-3.47
2022-11-16T15:39:37.999Z,-3.58
2022-11-16T15:44:42.267Z,-3.63
2022-11-16T15:49:54.145Z,-3.74
2022-11-16T15:55:04.972Z,-3.91
2022-11-16T16:00:23.993Z,-3.88
2022-11-16T16:05:37.312Z,-3.79
2022-11-16T16:10:41.137Z,-3.77
2022-11-16T16:15:44.527Z,-3.66
2022-11-16T16:20:50.805Z,-3.42
2022-11-16T16:25:54.209Z,-3.34
2022-11-16T16:30:59.397Z,-3.12
2022-11-16T16:36:05.041Z,-2.99
2022-11-16T16:41:09.593Z,-2.87
2022-11-16T16:46:14.295Z,-2.76
2022-11-16T16:51:18.904Z,-2.57
2022-11-16T16:56:22.694Z,-2.57
2022-11-16T17:01:26.947Z,-2.56
2022-11-16T17:06:31.918Z,-2.44
2022-11-16T17:11:35.037Z,-2.27
2022-11-16T17:16:38.779Z,-2.32
2022-11-16T17:21:45.056Z,-2.35
2022-11-16T17:26:49.006Z,-2.41
2022-11-16T17:31:52.730Z,-2.85
2022-11-16T17:36:57.786Z,-2.98
2022-11-16T17:42:01.629Z,-2.90
2022-11-16T17:47:04.894Z,-2.74
2022-11-16T17:52:10.324Z,-2.58
2022-11-16T17:57:14.114Z,-2.54
2022-11-16T18:02:17.677Z,-2.48
2022-11-16T18:07:23.287Z,-2.33
2022-11-16T18:12:27.261Z,-2.29
2022-11-16T18:17:35.150Z,-2.27
2022-11-16T18:22:39.821Z,-2.42
2022-11-16T18:27:43.339Z,-2.47
2022-11-16T18:32:46.976Z,-2.38
2022-11-16T18:37:52.184Z,-2.20
2022-11-16T18:42:55.805Z,-2.18
2022-11-16T18:47:59.304Z,-2.38
2022-11-16T18:53:04.609Z,-2.15
2022-11-16T18:58:22.806Z,-2.03
2022-11-16T19:03:32.643Z,-1.88
2022-11-16T19:08:38.997Z,-1.79
2022-11-16T19:13:43.885Z,-1.71
2022-11-16T19:18:47.278Z,-1.68
2022-11-16T19:23:54.217Z,-1.86
2022-11-16T19:28:57.452Z,-2.07
2022-11-16T19:34:02.558Z,-1.94
2022-11-16T19:39:07.681Z,-1.93
2022-11-16T19:44:11.251Z,-1.83
2022-11-16T19:49:20.131Z,-1.82
2022-11-16T19:54:25.107Z,-1.76
2022-11-16T19:59:28.623Z,-1.85
2022-11-16T20:04:33.865Z,-1.84
2022-11-16T20:09:38.546Z,-1.77
2022-11-16T20:14:41.985Z,-1.73
2022-11-16T20:19:47.206Z,-1.73
2022-11-16T20:24:52.202Z,-1.74
2022-11-16T20:29:55.794Z,-1.73
2022-11-16T20:34:59.218Z,-1.72
2022-11-16T20:40:04.136Z,-1.62
2022-11-16T20:45:09.067Z,-1.54
2022-11-16T20:50:12.308Z,-1.73
2022-11-16T20:55:17.080Z,-1.76
2022-11-16T21:00:20.777Z,-1.72
2022-11-16T21:05:24.204Z,-1.54
2022-11-16T21:10:28.906Z,-1.40
2022-11-16T21:15:32.359Z,-1.41
2022-11-16T21:20:35.631Z,-1.27
2022-11-16T21:25:40.321Z,-1.14
2022-11-16T21:30:43.535Z,-1.16
2022-11-16T21:35:46.899Z,-1.03
2022-11-16T21:40:51.861Z,-0.95
2022-11-16T21:46:03.153Z,-0.99
2022-11-16T21:51:08.590Z,-1.01
2022-11-16T21:56:15.785Z,-0.98
2022-11-16T22:01:19.344Z,-1.11
2022-11-16T22:06:40.300Z,-1.28
2022-11-16T22:11:44.927Z,-1.12
2022-11-16T22:16:48.362Z,-1.00
2022-11-16T22:21:51.847Z,-0.96
2022-11-16T22:26:56.594Z,-0.89
2022-11-16T22:32:00.105Z,-1.04
2022-11-16T22:37:03.726Z,-1.14
2022-11-16T22:42:08.681Z,-1.14
2022-11-16T22:47:12.183Z,-1.20
2022-11-16T22:52:15.598Z,-1.28
2022-11-16T22:57:20.558Z,-1.15
2022-11-16T23:02:23.836Z,-1.08
2022-11-16T23:07:27.167Z,-1.08
2022-11-16T23:12:49.379Z,-1.06
2022-11-16T23:17:52.852Z,-1.11
2022-11-16T23:23:09.953Z,-1.08
2022-11-16T23:28:17.592Z,-1.10
2022-11-16T23:33:41.365Z,-1.19
2022-11-16T23:38:44.879Z,-1.34
2022-11-16T23:44:01.596Z,-1.32
2022-11-16T23:49:04.923Z,-1.28
2022-11-16T23:54:08.163Z,-1.25
2022-11-16T23:59:13.252Z,-1.17
